Rockville, Rhode Island
Current Conditions -  °F | °C
As of 10:53 PM on Thursday 18 Dec 2014 (Local Time) from KWST Reporting Station
Few Clouds Few Clouds  
Wind Chill: 34°   Ceiling: Unl
Heat Index: 34°   Visibility: 10mi
Dew Point: 26°   Wind: 3mph
Humidity: 73%   Direction: 280°W
Pressure: 29.92"   Gusts: NA
Location:  41.52°N, 71.76°W
Report Text: KWST 190353Z AUTO 28003KT 10SM FEW029 01/M03 A2992 RMK AO2 SLP131 T00111033
Loading
Personal Weather Stations






























Interactive Weather Map New forecast layout! Learn more

10-Day Weather Forecast

Advertisements
Track Severe Weather on mobile